createdAt,value
2023-06-17T00:00:34.095Z,100.00
2023-06-17T00:03:01.120Z,100.00
2023-06-17T00:05:27.934Z,100.00
2023-06-17T00:07:54.546Z,100.00
2023-06-17T00:10:21.495Z,100.00
2023-06-17T00:12:49.501Z,100.00
2023-06-17T00:15:18.608Z,100.00
2023-06-17T00:17:46.286Z,100.00
2023-06-17T00:20:14.495Z,100.00
2023-06-17T00:22:41.905Z,100.00
2023-06-17T00:25:09.027Z,100.00
2023-06-17T00:27:35.764Z,100.00
2023-06-17T00:30:02.501Z,100.00
2023-06-17T00:32:29.357Z,100.00
2023-06-17T00:34:56.195Z,100.00
2023-06-17T00:37:23.094Z,100.00
2023-06-17T00:39:49.716Z,100.00
2023-06-17T00:42:17.515Z,100.00
2023-06-17T00:44:44.293Z,100.00
2023-06-17T00:47:12.693Z,100.00
2023-06-17T00:49:41.874Z,100.00
2023-06-17T00:52:31.048Z,100.00
2023-06-17T00:54:58.281Z,100.00
2023-06-17T00:57:25.320Z,100.00
2023-06-17T00:59:52.608Z,100.00
2023-06-17T01:02:19.222Z,100.00
2023-06-17T01:04:47.845Z,100.00
2023-06-17T01:07:25.195Z,100.00
2023-06-17T01:09:58.164Z,100.00
2023-06-17T01:12:29.310Z,100.00
2023-06-17T01:14:58.614Z,100.00
2023-06-17T01:17:27.279Z,100.00
2023-06-17T01:19:56.129Z,100.00
2023-06-17T01:22:24.326Z,100.00
2023-06-17T01:24:51.433Z,100.00
2023-06-17T01:27:21.232Z,100.00
2023-06-17T01:29:50.481Z,100.00
2023-06-17T01:32:17.924Z,100.00
2023-06-17T01:35:15.940Z,100.00
2023-06-17T01:37:49.398Z,100.00
2023-06-17T01:40:21.630Z,100.00
2023-06-17T01:42:52.033Z,100.00
2023-06-17T01:45:19.524Z,100.00
2023-06-17T01:47:47.167Z,100.00
2023-06-17T01:50:20.160Z,100.00
2023-06-17T01:52:47.826Z,100.00
2023-06-17T01:55:15.491Z,100.00
2023-06-17T01:57:42.136Z,100.00
2023-06-17T02:00:10.260Z,100.00
2023-06-17T02:02:37.210Z,100.00
2023-06-17T02:05:03.978Z,100.00
2023-06-17T02:07:31.721Z,100.00
2023-06-17T02:09:58.709Z,100.00
2023-06-17T02:12:26.268Z,100.00
2023-06-17T02:14:52.974Z,100.00
2023-06-17T02:17:19.760Z,100.00
2023-06-17T02:19:46.342Z,100.00
2023-06-17T02:22:13.120Z,100.00
2023-06-17T02:24:39.767Z,100.00
2023-06-17T02:27:06.755Z,100.00
2023-06-17T02:29:33.375Z,100.00
2023-06-17T02:31:59.995Z,100.00
2023-06-17T02:34:26.605Z,100.00
2023-06-17T02:36:53.219Z,100.00
2023-06-17T02:39:19.866Z,100.00
2023-06-17T02:41:46.494Z,100.00
2023-06-17T02:44:13.048Z,100.00
2023-06-17T02:46:39.679Z,100.00
2023-06-17T02:49:06.940Z,100.00
2023-06-17T02:51:33.572Z,100.00
2023-06-17T02:54:00.128Z,100.00
2023-06-17T02:56:27.785Z,100.00
2023-06-17T02:58:54.470Z,100.00
2023-06-17T03:01:22.443Z,100.00
2023-06-17T03:03:49.414Z,100.00
2023-06-17T03:06:16.964Z,100.00
2023-06-17T03:08:43.563Z,100.00
2023-06-17T03:11:10.439Z,100.00
2023-06-17T03:13:37.124Z,100.00
2023-06-17T03:16:04.083Z,100.00
2023-06-17T03:18:31.164Z,100.00
2023-06-17T03:20:58.079Z,100.00
2023-06-17T03:23:25.741Z,100.00
2023-06-17T03:25:53.228Z,100.00
2023-06-17T03:28:20.255Z,100.00
2023-06-17T03:30:46.945Z,100.00
2023-06-17T03:33:14.657Z,100.00
2023-06-17T03:35:41.530Z,100.00
2023-06-17T03:38:09.215Z,100.00
2023-06-17T03:40:35.856Z,100.00
2023-06-17T03:43:02.508Z,100.00
2023-06-17T03:45:29.478Z,100.00
2023-06-17T03:47:56.404Z,100.00
2023-06-17T03:50:23.254Z,100.00
2023-06-17T03:52:50.025Z,100.00
2023-06-17T03:55:17.646Z,100.00
2023-06-17T03:57:44.680Z,100.00
2023-06-17T04:00:12.569Z,100.00
2023-06-17T04:02:39.416Z,100.00
2023-06-17T04:05:06.330Z,100.00
2023-06-17T04:07:34.393Z,100.00
2023-06-17T04:10:06.308Z,100.00
2023-06-17T04:12:34.450Z,100.00
2023-06-17T04:15:01.028Z,100.00
2023-06-17T04:17:27.942Z,100.00
2023-06-17T04:19:57.609Z,100.00
2023-06-17T04:22:24.207Z,100.00
2023-06-17T04:24:57.368Z,100.00
2023-06-17T04:27:24.038Z,100.00
2023-06-17T04:29:50.633Z,100.00
2023-06-17T04:32:17.319Z,100.00
2023-06-17T04:34:48.904Z,100.00
2023-06-17T04:37:16.011Z,100.00
2023-06-17T04:39:43.372Z,100.00
2023-06-17T04:42:11.145Z,100.00
2023-06-17T04:44:41.733Z,100.00
2023-06-17T04:47:10.962Z,100.00
2023-06-17T04:49:42.809Z,100.00
2023-06-17T04:52:10.033Z,100.00
2023-06-17T04:54:36.908Z,100.00
2023-06-17T04:57:03.948Z,100.00
2023-06-17T04:59:30.730Z,100.00
2023-06-17T05:01:57.444Z,100.00
2023-06-17T05:04:24.060Z,100.00
2023-06-17T05:06:51.032Z,100.00
2023-06-17T05:09:17.654Z,100.00
2023-06-17T05:11:44.263Z,100.00
2023-06-17T05:14:11.079Z,100.00
2023-06-17T05:16:37.969Z,100.00
2023-06-17T05:19:04.544Z,100.00
2023-06-17T05:21:31.202Z,100.00
2023-06-17T05:23:57.812Z,100.00
2023-06-17T05:26:24.516Z,100.00
2023-06-17T05:28:51.129Z,100.00
2023-06-17T05:31:19.916Z,100.00
2023-06-17T05:33:46.645Z,100.00
2023-06-17T05:36:13.559Z,100.00
2023-06-17T05:38:40.178Z,100.00
2023-06-17T05:41:06.989Z,100.00
2023-06-17T05:43:33.644Z,100.00
2023-06-17T05:46:00.273Z,100.00
2023-06-17T05:48:26.961Z,100.00
2023-06-17T05:50:53.534Z,100.00
2023-06-17T05:53:20.210Z,100.00
2023-06-17T05:55:46.751Z,100.00
2023-06-17T05:58:13.450Z,100.00
2023-06-17T06:00:40.084Z,100.00
2023-06-17T06:03:06.705Z,100.00
2023-06-17T06:05:33.374Z,100.00
2023-06-17T06:07:59.946Z,100.00
2023-06-17T06:10:29.638Z,100.00
2023-06-17T06:12:56.722Z,100.00
2023-06-17T06:15:24.587Z,100.00
2023-06-17T06:17:51.265Z,100.00
2023-06-17T06:20:17.911Z,100.00
2023-06-17T06:22:44.849Z,100.00
2023-06-17T06:25:11.503Z,100.00
2023-06-17T06:27:38.075Z,100.00
2023-06-17T06:30:05.171Z,100.00
2023-06-17T06:32:31.772Z,100.00
2023-06-17T06:34:58.373Z,100.00
2023-06-17T06:37:24.991Z,100.00
2023-06-17T06:39:51.571Z,100.00
2023-06-17T06:42:18.182Z,100.00
2023-06-17T06:44:44.812Z,100.00
2023-06-17T06:47:11.456Z,100.00
2023-06-17T06:49:38.140Z,100.00
2023-06-17T06:52:05.145Z,100.00
2023-06-17T06:54:31.683Z,100.00
2023-06-17T06:56:58.410Z,100.00
2023-06-17T06:59:25.012Z,100.00
2023-06-17T07:01:51.623Z,100.00
2023-06-17T07:04:20.730Z,100.00
2023-06-17T07:06:47.691Z,100.00
2023-06-17T07:09:14.324Z,100.00
2023-06-17T07:11:40.906Z,100.00
2023-06-17T07:14:07.857Z,100.00
2023-06-17T07:16:34.461Z,100.00
2023-06-17T07:19:01.622Z,100.00
2023-06-17T07:23:54.927Z,100.00
2023-06-17T07:26:21.598Z,100.00
2023-06-17T07:28:48.211Z,100.00
2023-06-17T07:31:14.807Z,100.00
2023-06-17T07:33:41.767Z,100.00
2023-06-17T07:36:08.332Z,100.00
2023-06-17T07:38:34.988Z,100.00
2023-06-17T07:41:01.924Z,100.00
2023-06-17T07:43:28.950Z,100.00
2023-06-17T07:45:56.681Z,100.00
2023-06-17T07:48:24.327Z,99.68
2023-06-17T07:50:51.167Z,100.00
2023-06-17T07:53:17.702Z,95.39
2023-06-17T07:55:44.328Z,97.14
2023-06-17T07:58:10.918Z,87.85
2023-06-17T08:00:37.457Z,89.44
2023-06-17T08:03:04.292Z,87.08
2023-06-17T08:05:31.145Z,82.98
2023-06-17T08:07:57.764Z,92.24
2023-06-17T08:10:24.321Z,73.60
2023-06-17T08:12:51.641Z,62.06
2023-06-17T08:15:18.249Z,58.21
2023-06-17T08:17:45.024Z,57.08
2023-06-17T08:20:12.087Z,56.50
2023-06-17T08:22:38.858Z,63.49
2023-06-17T08:25:06.047Z,63.37
2023-06-17T08:27:33.601Z,63.76
2023-06-17T08:30:01.013Z,61.74
2023-06-17T08:32:27.656Z,63.44
2023-06-17T08:34:54.634Z,68.86
2023-06-17T08:37:21.316Z,62.41
2023-06-17T08:39:47.869Z,56.96
2023-06-17T08:42:14.461Z,51.84
2023-06-17T08:44:44.090Z,51.68
2023-06-17T08:47:16.589Z,53.08
2023-06-17T08:49:45.114Z,47.93
2023-06-17T08:52:12.687Z,46.50
2023-06-17T08:54:41.737Z,49.18
2023-06-17T08:57:15.071Z,50.79
2023-06-17T08:59:42.312Z,47.08
2023-06-17T09:02:09.109Z,46.92
2023-06-17T09:04:36.583Z,45.98
2023-06-17T09:07:03.855Z,45.67
2023-06-17T09:09:30.484Z,47.16
2023-06-17T09:11:57.053Z,46.07
2023-06-17T09:14:23.861Z,46.17
2023-06-17T09:16:50.896Z,48.80
2023-06-17T09:19:17.668Z,52.03
2023-06-17T09:21:47.416Z,48.69
2023-06-17T09:24:14.318Z,49.78
2023-06-17T09:26:43.248Z,45.77
2023-06-17T09:29:11.820Z,47.16
2023-06-17T09:31:52.388Z,47.88
2023-06-17T09:34:19.954Z,49.38
2023-06-17T09:37:01.693Z,43.74
2023-06-17T09:39:33.049Z,46.32
2023-06-17T09:42:10.398Z,47.00
2023-06-17T09:44:40.877Z,47.40
2023-06-17T09:47:09.206Z,48.04
2023-06-17T09:49:37.236Z,49.38
2023-06-17T09:52:06.741Z,49.07
2023-06-17T09:54:34.713Z,48.60
2023-06-17T09:57:02.512Z,50.77
2023-06-17T09:59:30.307Z,47.64
2023-06-17T10:01:58.014Z,46.22
2023-06-17T10:04:24.734Z,46.97
2023-06-17T10:06:54.256Z,46.44
2023-06-17T10:09:21.519Z,43.58
2023-06-17T10:11:52.679Z,41.34
2023-06-17T10:14:25.103Z,40.23
2023-06-17T10:16:52.279Z,39.91
2023-06-17T10:19:23.715Z,39.92
2023-06-17T10:21:54.135Z,40.28
2023-06-17T10:24:21.740Z,39.98
2023-06-17T10:26:52.531Z,37.81
2023-06-17T10:29:19.232Z,37.88
2023-06-17T10:31:45.797Z,42.24
2023-06-17T10:34:22.856Z,36.04
2023-06-17T10:36:59.719Z,36.22
2023-06-17T10:39:26.323Z,36.57
2023-06-17T10:41:57.052Z,35.68
2023-06-17T10:44:36.449Z,37.02
2023-06-17T10:47:15.626Z,35.48
2023-06-17T10:49:43.295Z,35.91
2023-06-17T10:52:14.485Z,35.33
2023-06-17T10:54:55.378Z,35.20
2023-06-17T10:57:32.011Z,35.20
2023-06-17T11:00:07.678Z,36.40
2023-06-17T11:02:34.497Z,36.37
2023-06-17T11:05:02.835Z,36.86
2023-06-17T11:07:30.172Z,37.29
2023-06-17T11:09:57.499Z,36.05
2023-06-17T11:12:24.169Z,35.15
2023-06-17T11:14:52.580Z,35.96
2023-06-17T11:17:19.239Z,35.39
2023-06-17T11:19:47.504Z,33.39
2023-06-17T11:22:14.166Z,35.21
2023-06-17T11:24:40.865Z,33.50
2023-06-17T11:27:07.975Z,30.80
2023-06-17T11:29:34.673Z,33.06
2023-06-17T11:32:02.345Z,35.76
2023-06-17T11:34:35.431Z,35.18
2023-06-17T11:37:03.320Z,35.46
2023-06-17T11:39:32.067Z,36.61
2023-06-17T11:42:02.944Z,37.95
2023-06-17T11:44:34.172Z,38.17
2023-06-17T11:47:08.613Z,38.95
2023-06-17T11:49:35.888Z,39.08
2023-06-17T11:52:11.028Z,41.03
2023-06-17T11:54:50.178Z,38.42
2023-06-17T11:57:25.682Z,39.42
2023-06-17T11:59:53.611Z,37.05
2023-06-17T12:02:20.794Z,37.22
2023-06-17T12:04:48.130Z,36.69
2023-06-17T12:07:15.331Z,37.78
2023-06-17T12:09:53.312Z,34.82
2023-06-17T12:12:28.439Z,34.02
2023-06-17T12:15:21.109Z,37.41
2023-06-17T12:17:51.983Z,34.45
2023-06-17T12:20:20.902Z,34.24
2023-06-17T12:22:50.807Z,35.14
2023-06-17T12:25:17.642Z,35.51
2023-06-17T12:27:44.901Z,37.01
2023-06-17T12:30:12.539Z,36.23
2023-06-17T12:32:41.321Z,35.52
2023-06-17T12:35:09.383Z,36.63
2023-06-17T12:37:38.513Z,36.85
2023-06-17T12:40:05.737Z,35.67
2023-06-17T12:42:32.525Z,35.17
2023-06-17T12:44:59.155Z,35.58
2023-06-17T12:47:26.676Z,34.28
2023-06-17T12:49:53.488Z,34.04
2023-06-17T12:52:20.182Z,33.22
2023-06-17T12:54:47.316Z,33.52
2023-06-17T12:57:16.032Z,32.83
2023-06-17T12:59:42.810Z,32.53
2023-06-17T13:02:09.429Z,34.70
2023-06-17T13:04:36.034Z,34.04
2023-06-17T13:07:02.715Z,33.13
2023-06-17T13:09:29.393Z,34.38
2023-06-17T13:11:56.203Z,33.36
2023-06-17T13:14:23.959Z,34.05
2023-06-17T13:16:50.965Z,35.06
2023-06-17T13:19:18.504Z,34.97
2023-06-17T13:21:45.193Z,37.35
2023-06-17T13:24:11.859Z,35.67
2023-06-17T13:26:38.998Z,35.42
2023-06-17T13:29:06.470Z,35.58
2023-06-17T13:31:33.854Z,38.39
2023-06-17T13:34:00.902Z,36.46
2023-06-17T13:36:27.717Z,35.13
2023-06-17T13:38:54.427Z,33.98
2023-06-17T13:41:21.780Z,34.57
2023-06-17T13:43:48.582Z,32.40
2023-06-17T13:46:15.314Z,32.14
2023-06-17T13:48:44.370Z,33.08
2023-06-17T13:51:11.139Z,31.71
2023-06-17T13:53:38.225Z,33.46
2023-06-17T13:56:05.762Z,33.12
2023-06-17T13:58:32.374Z,32.45
2023-06-17T14:00:59.136Z,32.91
2023-06-17T14:03:25.915Z,31.81
2023-06-17T14:05:52.827Z,32.26
2023-06-17T14:08:20.810Z,32.51
2023-06-17T14:10:48.800Z,29.59
2023-06-17T14:13:15.429Z,29.66
2023-06-17T14:15:41.979Z,30.35
2023-06-17T14:18:08.704Z,31.94
2023-06-17T14:20:35.328Z,32.17
2023-06-17T14:23:04.068Z,32.56
2023-06-17T14:25:31.131Z,33.06
2023-06-17T14:27:57.934Z,31.77
2023-06-17T14:30:24.788Z,32.71
2023-06-17T14:32:51.687Z,33.30
2023-06-17T14:35:20.353Z,33.45
2023-06-17T14:37:49.027Z,33.21
2023-06-17T14:40:16.767Z,35.93
2023-06-17T14:42:43.643Z,31.49
2023-06-17T14:45:12.837Z,32.50
2023-06-17T14:47:41.139Z,30.37
2023-06-17T14:50:09.794Z,31.20
2023-06-17T14:52:36.412Z,30.59
2023-06-17T14:55:04.387Z,29.62
2023-06-17T14:57:33.378Z,30.33
2023-06-17T15:00:00.715Z,29.79
2023-06-17T15:02:38.077Z,32.19
2023-06-17T15:05:05.038Z,30.45
2023-06-17T15:07:31.621Z,30.94
2023-06-17T15:09:58.176Z,30.16
2023-06-17T15:12:24.727Z,30.72
2023-06-17T15:14:52.433Z,30.79
2023-06-17T15:17:19.061Z,30.12
2023-06-17T15:19:45.931Z,31.12
2023-06-17T15:22:12.640Z,30.94
2023-06-17T15:24:39.461Z,31.16
2023-06-17T15:27:07.471Z,30.92
2023-06-17T15:29:34.175Z,30.54
2023-06-17T15:32:01.249Z,32.67
2023-06-17T15:34:27.868Z,30.26
2023-06-17T15:36:54.478Z,29.42
2023-06-17T15:39:24.299Z,31.68
2023-06-17T15:41:53.085Z,29.98
2023-06-17T15:44:21.014Z,30.08
2023-06-17T15:46:48.148Z,30.97
2023-06-17T15:49:14.833Z,31.31
2023-06-17T15:51:41.603Z,30.39
2023-06-17T15:54:08.797Z,29.87
2023-06-17T15:56:37.976Z,29.54
2023-06-17T15:59:05.608Z,30.08
2023-06-17T16:01:32.914Z,31.75
2023-06-17T16:04:00.006Z,31.07
2023-06-17T16:06:26.840Z,32.24
2023-06-17T16:08:54.569Z,33.95
2023-06-17T16:11:21.402Z,34.00
2023-06-17T16:13:49.162Z,32.09
2023-06-17T16:16:16.045Z,33.86
2023-06-17T16:18:42.710Z,33.03
2023-06-17T16:21:09.340Z,31.95
2023-06-17T16:23:36.870Z,33.85
2023-06-17T16:26:04.014Z,32.83
2023-06-17T16:28:30.682Z,33.15
2023-06-17T16:30:57.235Z,33.02
2023-06-17T16:33:24.121Z,32.86
2023-06-17T16:35:50.780Z,32.73
2023-06-17T16:38:17.391Z,33.12
2023-06-17T16:40:44.068Z,31.96
2023-06-17T16:43:10.675Z,31.91
2023-06-17T16:45:37.341Z,33.02
2023-06-17T16:48:04.256Z,32.39
2023-06-17T16:50:31.052Z,33.33
2023-06-17T16:52:57.593Z,33.19
2023-06-17T16:55:24.255Z,34.42
2023-06-17T16:57:50.990Z,35.09
2023-06-17T17:00:18.150Z,36.55
2023-06-17T17:02:45.024Z,34.37
2023-06-17T17:05:11.777Z,36.28
2023-06-17T17:07:38.494Z,35.98
2023-06-17T17:10:06.742Z,36.19
2023-06-17T17:12:33.375Z,36.46
2023-06-17T17:14:59.973Z,35.94
2023-06-17T17:17:27.115Z,35.75
2023-06-17T17:19:54.687Z,37.37
2023-06-17T17:22:21.314Z,36.42
2023-06-17T17:24:48.005Z,37.71
2023-06-17T17:27:14.716Z,35.86
2023-06-17T17:29:41.600Z,36.80
2023-06-17T17:32:08.575Z,35.52
2023-06-17T17:34:35.204Z,37.12
2023-06-17T17:37:01.840Z,37.58
2023-06-17T17:39:28.450Z,37.07
2023-06-17T17:41:55.020Z,37.18
2023-06-17T17:44:21.699Z,38.00
2023-06-17T17:46:48.326Z,38.72
2023-06-17T17:49:14.904Z,40.88
2023-06-17T17:51:41.525Z,38.58
2023-06-17T17:54:08.150Z,38.83
2023-06-17T17:56:35.603Z,40.06
2023-06-17T17:59:02.472Z,37.90
2023-06-17T18:01:29.029Z,39.78
2023-06-17T18:03:55.597Z,41.52
2023-06-17T18:06:22.304Z,43.76
2023-06-17T18:08:48.842Z,41.01
2023-06-17T18:11:15.590Z,42.95
2023-06-17T18:13:42.167Z,45.79
2023-06-17T18:16:08.932Z,42.68
2023-06-17T18:18:35.568Z,43.27
2023-06-17T18:21:02.166Z,46.30
2023-06-17T18:23:28.732Z,44.99
2023-06-17T18:25:57.124Z,47.28
2023-06-17T18:28:23.809Z,47.72
2023-06-17T18:30:50.336Z,47.33
2023-06-17T18:33:17.006Z,47.71
2023-06-17T18:35:43.559Z,47.26
2023-06-17T18:38:10.269Z,49.19
2023-06-17T18:40:39.780Z,49.58
2023-06-17T18:43:08.501Z,48.46
2023-06-17T18:45:35.394Z,49.26
2023-06-17T18:48:03.952Z,51.22
2023-06-17T18:50:30.815Z,48.97
2023-06-17T18:52:57.555Z,50.30
2023-06-17T18:55:24.189Z,52.97
2023-06-17T18:57:50.831Z,53.78
2023-06-17T19:00:19.033Z,53.49
2023-06-17T19:02:45.923Z,56.68
2023-06-17T19:05:12.600Z,63.65
2023-06-17T19:07:43.689Z,62.47
2023-06-17T19:10:12.215Z,63.99
2023-06-17T19:12:39.199Z,67.98
2023-06-17T19:15:08.578Z,65.00
2023-06-17T19:17:38.715Z,68.62
2023-06-17T19:20:09.759Z,75.83
2023-06-17T19:22:38.447Z,70.67
2023-06-17T19:25:08.524Z,73.81
2023-06-17T19:27:35.092Z,79.32
2023-06-17T19:30:05.479Z,82.18
2023-06-17T19:32:33.223Z,88.21
2023-06-17T19:35:01.082Z,90.62
2023-06-17T19:37:28.653Z,90.35
2023-06-17T19:39:55.724Z,92.82
2023-06-17T19:42:22.520Z,95.49
2023-06-17T19:44:57.035Z,97.75
2023-06-17T19:47:25.962Z,100.00
2023-06-17T19:50:00.506Z,100.00
2023-06-17T19:52:27.212Z,100.00
2023-06-17T19:54:54.394Z,100.00
2023-06-17T19:57:21.021Z,100.00
2023-06-17T19:59:48.816Z,100.00
2023-06-17T20:02:15.479Z,100.00
2023-06-17T20:04:42.167Z,100.00
2023-06-17T20:07:08.800Z,100.00
2023-06-17T20:09:35.866Z,100.00
2023-06-17T20:12:02.404Z,100.00
2023-06-17T20:14:28.957Z,100.00
2023-06-17T20:16:55.782Z,100.00
2023-06-17T20:19:22.330Z,100.00
2023-06-17T20:21:48.996Z,100.00
2023-06-17T20:24:15.686Z,100.00
2023-06-17T20:26:42.375Z,100.00
2023-06-17T20:29:08.930Z,100.00
2023-06-17T20:31:35.493Z,100.00
2023-06-17T20:34:02.465Z,100.00
2023-06-17T20:36:29.537Z,100.00
2023-06-17T20:38:56.213Z,100.00
2023-06-17T20:41:22.917Z,100.00
2023-06-17T20:43:49.571Z,100.00
2023-06-17T20:46:16.172Z,100.00
2023-06-17T20:48:42.762Z,100.00
2023-06-17T20:51:11.318Z,100.00
2023-06-17T20:53:38.094Z,100.00
2023-06-17T20:56:04.784Z,100.00
2023-06-17T20:58:31.364Z,100.00
2023-06-17T21:00:57.997Z,100.00
2023-06-17T21:03:24.641Z,100.00
2023-06-17T21:05:51.344Z,100.00
2023-06-17T21:08:18.995Z,100.00
2023-06-17T21:10:45.617Z,100.00
2023-06-17T21:13:12.916Z,100.00
2023-06-17T21:15:39.595Z,100.00
2023-06-17T21:18:06.393Z,100.00
2023-06-17T21:20:33.190Z,100.00
2023-06-17T21:23:00.892Z,100.00
2023-06-17T21:25:27.483Z,100.00
2023-06-17T21:27:54.044Z,100.00
2023-06-17T21:30:20.953Z,100.00
2023-06-17T21:32:47.749Z,100.00
2023-06-17T21:35:14.564Z,100.00
2023-06-17T21:37:41.125Z,100.00
2023-06-17T21:40:11.048Z,100.00
2023-06-17T21:42:37.738Z,100.00
2023-06-17T21:45:04.600Z,100.00
2023-06-17T21:47:31.196Z,100.00
2023-06-17T21:49:59.496Z,100.00
2023-06-17T21:52:26.205Z,100.00
2023-06-17T21:54:52.744Z,100.00
2023-06-17T21:57:20.903Z,100.00
2023-06-17T21:59:47.454Z,100.00
2023-06-17T22:02:14.003Z,100.00
2023-06-17T22:04:40.801Z,100.00
2023-06-17T22:07:07.328Z,100.00
2023-06-17T22:09:33.891Z,100.00
2023-06-17T22:12:00.716Z,100.00
2023-06-17T22:14:27.331Z,100.00
2023-06-17T22:16:53.948Z,100.00
2023-06-17T22:19:21.073Z,100.00
2023-06-17T22:21:47.619Z,100.00
2023-06-17T22:24:14.731Z,100.00
2023-06-17T22:26:41.429Z,100.00
2023-06-17T22:29:08.658Z,100.00
2023-06-17T22:31:35.276Z,100.00
2023-06-17T22:34:01.820Z,100.00
2023-06-17T22:36:28.390Z,100.00
2023-06-17T22:38:54.950Z,100.00
2023-06-17T22:41:21.529Z,100.00
2023-06-17T22:43:48.106Z,100.00
2023-06-17T22:46:14.744Z,100.00
2023-06-17T22:48:41.311Z,100.00
2023-06-17T22:51:08.017Z,100.00
2023-06-17T22:53:35.457Z,100.00
2023-06-17T22:56:02.320Z,100.00
2023-06-17T22:58:28.921Z,100.00
2023-06-17T23:00:56.427Z,100.00
2023-06-17T23:03:23.087Z,100.00
2023-06-17T23:05:49.681Z,100.00
2023-06-17T23:08:16.318Z,100.00
2023-06-17T23:10:42.961Z,100.00
2023-06-17T23:13:09.518Z,100.00
2023-06-17T23:15:39.754Z,100.00
2023-06-17T23:18:06.670Z,100.00
2023-06-17T23:20:33.413Z,100.00
2023-06-17T23:23:00.016Z,100.00
2023-06-17T23:25:27.650Z,100.00
2023-06-17T23:27:54.713Z,100.00
2023-06-17T23:30:22.541Z,100.00
2023-06-17T23:32:51.005Z,100.00
2023-06-17T23:35:18.417Z,100.00
2023-06-17T23:37:44.990Z,100.00
2023-06-17T23:40:11.767Z,100.00
2023-06-17T23:42:38.386Z,100.00
2023-06-17T23:45:05.458Z,100.00
2023-06-17T23:47:32.245Z,100.00
2023-06-17T23:49:59.020Z,100.00
2023-06-17T23:52:25.702Z,100.00
2023-06-17T23:54:52.264Z,100.00
2023-06-17T23:57:18.958Z,100.00
2023-06-17T23:59:45.495Z,100.00
